sensor_id;sensor_type;location;lat;lon;timestamp;P1;durP1;ratioP1;P2;durP2;ratioP2
49592;SDS011;35499;51.482;4.264;2024-02-16T00:01:16;4.33;;;2.00;;
49592;SDS011;35499;51.482;4.264;2024-02-16T00:03:42;4.30;;;1.87;;
49592;SDS011;35499;51.482;4.264;2024-02-16T00:06:07;4.03;;;1.33;;
49592;SDS011;35499;51.482;4.264;2024-02-16T00:08:32;3.23;;;1.27;;
49592;SDS011;35499;51.482;4.264;2024-02-16T00:10:59;4.88;;;1.63;;
49592;SDS011;35499;51.482;4.264;2024-02-16T00:13:25;3.65;;;1.38;;
49592;SDS011;35499;51.482;4.264;2024-02-16T00:15:50;3.15;;;1.15;;
49592;SDS011;35499;51.482;4.264;2024-02-16T00:18:15;4.27;;;1.43;;
49592;SDS011;35499;51.482;4.264;2024-02-16T00:20:41;3.93;;;1.70;;
49592;SDS011;35499;51.482;4.264;2024-02-16T00:23:06;3.47;;;1.50;;
49592;SDS011;35499;51.482;4.264;2024-02-16T00:25:31;6.30;;;1.65;;
49592;SDS011;35499;51.482;4.264;2024-02-16T00:27:57;3.37;;;1.43;;
49592;SDS011;35499;51.482;4.264;2024-02-16T00:30:22;3.37;;;1.83;;
49592;SDS011;35499;51.482;4.264;2024-02-16T00:32:47;4.10;;;2.20;;
49592;SDS011;35499;51.482;4.264;2024-02-16T00:35:14;4.95;;;1.80;;
49592;SDS011;35499;51.482;4.264;2024-02-16T00:37:41;6.15;;;1.95;;
49592;SDS011;35499;51.482;4.264;2024-02-16T00:40:07;5.03;;;2.22;;
49592;SDS011;35499;51.482;4.264;2024-02-16T00:42:33;5.50;;;2.42;;
49592;SDS011;35499;51.482;4.264;2024-02-16T00:44:58;6.40;;;2.03;;
49592;SDS011;35499;51.482;4.264;2024-02-16T00:47:26;4.38;;;2.15;;
49592;SDS011;35499;51.482;4.264;2024-02-16T00:49:54;4.95;;;2.05;;
49592;SDS011;35499;51.482;4.264;2024-02-16T00:54:47;6.72;;;2.03;;
49592;SDS011;35499;51.482;4.264;2024-02-16T00:57:13;4.80;;;1.90;;
49592;SDS011;35499;51.482;4.264;2024-02-16T00:59:39;5.82;;;2.45;;
49592;SDS011;35499;51.482;4.264;2024-02-16T01:02:05;3.72;;;2.03;;
49592;SDS011;35499;51.482;4.264;2024-02-16T01:04:30;5.05;;;1.98;;
49592;SDS011;35499;51.482;4.264;2024-02-16T01:06:56;5.97;;;2.45;;
49592;SDS011;35499;51.482;4.264;2024-02-16T01:09:21;6.27;;;2.53;;
49592;SDS011;35499;51.482;4.264;2024-02-16T01:11:47;7.67;;;2.70;;
49592;SDS011;35499;51.482;4.264;2024-02-16T01:14:12;7.35;;;3.17;;
49592;SDS011;35499;51.482;4.264;2024-02-16T01:16:37;6.63;;;2.40;;
49592;SDS011;35499;51.482;4.264;2024-02-16T01:19:03;6.83;;;2.63;;
49592;SDS011;35499;51.482;4.264;2024-02-16T01:21:28;4.32;;;2.08;;
49592;SDS011;35499;51.482;4.264;2024-02-16T01:23:54;4.72;;;2.22;;
49592;SDS011;35499;51.482;4.264;2024-02-16T01:26:19;6.07;;;2.63;;
49592;SDS011;35499;51.482;4.264;2024-02-16T01:28:44;5.43;;;2.40;;
49592;SDS011;35499;51.482;4.264;2024-02-16T01:31:09;7.87;;;2.80;;
49592;SDS011;35499;51.482;4.264;2024-02-16T01:33:35;5.30;;;2.47;;
49592;SDS011;35499;51.482;4.264;2024-02-16T01:36:02;6.60;;;3.13;;
49592;SDS011;35499;51.482;4.264;2024-02-16T01:38:28;4.72;;;2.30;;
49592;SDS011;35499;51.482;4.264;2024-02-16T01:40:56;7.60;;;2.50;;
49592;SDS011;35499;51.482;4.264;2024-02-16T01:43:21;5.40;;;2.63;;
49592;SDS011;35499;51.482;4.264;2024-02-16T01:45:47;5.77;;;2.73;;
49592;SDS011;35499;51.482;4.264;2024-02-16T01:48:13;5.40;;;2.33;;
49592;SDS011;35499;51.482;4.264;2024-02-16T01:50:39;6.07;;;3.10;;
49592;SDS011;35499;51.482;4.264;2024-02-16T01:53:08;6.72;;;2.78;;
49592;SDS011;35499;51.482;4.264;2024-02-16T01:55:33;7.38;;;3.38;;
49592;SDS011;35499;51.482;4.264;2024-02-16T01:57:58;6.22;;;2.67;;
49592;SDS011;35499;51.482;4.264;2024-02-16T02:00:25;7.00;;;2.55;;
49592;SDS011;35499;51.482;4.264;2024-02-16T02:02:50;7.15;;;2.53;;
49592;SDS011;35499;51.482;4.264;2024-02-16T02:05:16;7.10;;;2.40;;
49592;SDS011;35499;51.482;4.264;2024-02-16T02:07:41;9.60;;;3.70;;
49592;SDS011;35499;51.482;4.264;2024-02-16T02:10:08;7.18;;;2.20;;
49592;SDS011;35499;51.482;4.264;2024-02-16T02:12:34;4.00;;;2.15;;
49592;SDS011;35499;51.482;4.264;2024-02-16T02:14:59;5.78;;;1.98;;
49592;SDS011;35499;51.482;4.264;2024-02-16T02:17:24;5.30;;;2.38;;
49592;SDS011;35499;51.482;4.264;2024-02-16T02:19:50;6.63;;;1.63;;
49592;SDS011;35499;51.482;4.264;2024-02-16T02:22:16;6.07;;;2.10;;
49592;SDS011;35499;51.482;4.264;2024-02-16T02:24:42;3.50;;;1.77;;
49592;SDS011;35499;51.482;4.264;2024-02-16T02:27:09;4.25;;;1.52;;
49592;SDS011;35499;51.482;4.264;2024-02-16T02:29:34;4.30;;;2.22;;
49592;SDS011;35499;51.482;4.264;2024-02-16T02:32:00;3.60;;;1.73;;
49592;SDS011;35499;51.482;4.264;2024-02-16T02:34:25;2.90;;;1.60;;
49592;SDS011;35499;51.482;4.264;2024-02-16T02:36:51;3.45;;;1.65;;
49592;SDS011;35499;51.482;4.264;2024-02-16T02:39:16;4.00;;;1.90;;
49592;SDS011;35499;51.482;4.264;2024-02-16T02:41:41;3.80;;;1.73;;
49592;SDS011;35499;51.482;4.264;2024-02-16T02:44:08;3.80;;;1.60;;
49592;SDS011;35499;51.482;4.264;2024-02-16T02:46:33;4.32;;;2.03;;
49592;SDS011;35499;51.482;4.264;2024-02-16T02:48:59;4.13;;;1.30;;
49592;SDS011;35499;51.482;4.264;2024-02-16T02:51:24;7.47;;;1.67;;
49592;SDS011;35499;51.482;4.264;2024-02-16T02:53:49;4.70;;;1.63;;
49592;SDS011;35499;51.482;4.264;2024-02-16T02:56:15;2.47;;;1.70;;
49592;SDS011;35499;51.482;4.264;2024-02-16T02:58:40;4.03;;;1.67;;
49592;SDS011;35499;51.482;4.264;2024-02-16T03:01:05;4.47;;;1.60;;
49592;SDS011;35499;51.482;4.264;2024-02-16T03:03:32;4.30;;;1.80;;
49592;SDS011;35499;51.482;4.264;2024-02-16T03:05:58;3.42;;;1.50;;
49592;SDS011;35499;51.482;4.264;2024-02-16T03:08:24;2.80;;;1.52;;
49592;SDS011;35499;51.482;4.264;2024-02-16T03:10:49;3.93;;;1.50;;
49592;SDS011;35499;51.482;4.264;2024-02-16T03:13:14;4.83;;;1.77;;
49592;SDS011;35499;51.482;4.264;2024-02-16T03:15:43;3.22;;;1.33;;
49592;SDS011;35499;51.482;4.264;2024-02-16T03:18:08;3.15;;;1.30;;
49592;SDS011;35499;51.482;4.264;2024-02-16T03:20:34;3.27;;;1.50;;
49592;SDS011;35499;51.482;4.264;2024-02-16T03:23:00;6.25;;;1.88;;
49592;SDS011;35499;51.482;4.264;2024-02-16T03:25:26;3.38;;;1.48;;
49592;SDS011;35499;51.482;4.264;2024-02-16T03:27:51;3.97;;;1.80;;
49592;SDS011;35499;51.482;4.264;2024-02-16T03:32:47;4.70;;;1.52;;
49592;SDS011;35499;51.482;4.264;2024-02-16T03:35:16;4.00;;;1.63;;
49592;SDS011;35499;51.482;4.264;2024-02-16T03:37:42;3.75;;;1.75;;
49592;SDS011;35499;51.482;4.264;2024-02-16T03:40:07;3.83;;;1.95;;
49592;SDS011;35499;51.482;4.264;2024-02-16T03:42:34;4.18;;;1.98;;
49592;SDS011;35499;51.482;4.264;2024-02-16T03:45:00;6.03;;;2.03;;
49592;SDS011;35499;51.482;4.264;2024-02-16T03:47:26;3.78;;;1.50;;
49592;SDS011;35499;51.482;4.264;2024-02-16T03:49:51;4.23;;;1.73;;
49592;SDS011;35499;51.482;4.264;2024-02-16T03:52:16;4.10;;;1.63;;
49592;SDS011;35499;51.482;4.264;2024-02-16T03:54:42;4.40;;;1.83;;
49592;SDS011;35499;51.482;4.264;2024-02-16T03:57:08;4.40;;;1.40;;
49592;SDS011;35499;51.482;4.264;2024-02-16T03:59:36;3.70;;;1.65;;
49592;SDS011;35499;51.482;4.264;2024-02-16T04:02:02;4.35;;;1.83;;
49592;SDS011;35499;51.482;4.264;2024-02-16T04:04:27;5.65;;;2.25;;
49592;SDS011;35499;51.482;4.264;2024-02-16T04:06:52;6.90;;;2.27;;
49592;SDS011;35499;51.482;4.264;2024-02-16T04:09:18;6.90;;;2.40;;
49592;SDS011;35499;51.482;4.264;2024-02-16T04:11:44;3.63;;;1.33;;
49592;SDS011;35499;51.482;4.264;2024-02-16T04:14:10;6.45;;;2.22;;
49592;SDS011;35499;51.482;4.264;2024-02-16T04:16:36;6.72;;;2.30;;
49592;SDS011;35499;51.482;4.264;2024-02-16T04:19:01;3.58;;;1.70;;
49592;SDS011;35499;51.482;4.264;2024-02-16T04:21:27;3.47;;;1.73;;
49592;SDS011;35499;51.482;4.264;2024-02-16T04:23:52;5.38;;;1.80;;
49592;SDS011;35499;51.482;4.264;2024-02-16T04:26:17;3.33;;;1.80;;
49592;SDS011;35499;51.482;4.264;2024-02-16T04:28:43;3.37;;;1.77;;
49592;SDS011;35499;51.482;4.264;2024-02-16T04:31:08;3.83;;;2.08;;
49592;SDS011;35499;51.482;4.264;2024-02-16T04:33:33;4.03;;;1.63;;
49592;SDS011;35499;51.482;4.264;2024-02-16T04:35:59;4.60;;;1.90;;
49592;SDS011;35499;51.482;4.264;2024-02-16T04:38:24;4.20;;;2.10;;
49592;SDS011;35499;51.482;4.264;2024-02-16T04:40:49;5.90;;;1.90;;
49592;SDS011;35499;51.482;4.264;2024-02-16T04:43:15;5.77;;;1.40;;
49592;SDS011;35499;51.482;4.264;2024-02-16T04:45:40;4.73;;;1.80;;
49592;SDS011;35499;51.482;4.264;2024-02-16T04:48:05;4.57;;;1.97;;
49592;SDS011;35499;51.482;4.264;2024-02-16T04:50:31;3.67;;;1.58;;
49592;SDS011;35499;51.482;4.264;2024-02-16T04:52:57;4.32;;;1.80;;
49592;SDS011;35499;51.482;4.264;2024-02-16T04:55:23;4.43;;;2.10;;
49592;SDS011;35499;51.482;4.264;2024-02-16T04:57:48;3.67;;;1.60;;
49592;SDS011;35499;51.482;4.264;2024-02-16T05:00:13;4.38;;;2.20;;
49592;SDS011;35499;51.482;4.264;2024-02-16T05:02:39;4.88;;;2.03;;
49592;SDS011;35499;51.482;4.264;2024-02-16T05:05:04;4.30;;;1.87;;
49592;SDS011;35499;51.482;4.264;2024-02-16T05:07:29;4.40;;;1.85;;
49592;SDS011;35499;51.482;4.264;2024-02-16T05:09:56;4.25;;;1.98;;
49592;SDS011;35499;51.482;4.264;2024-02-16T05:12:23;7.82;;;2.28;;
49592;SDS011;35499;51.482;4.264;2024-02-16T05:14:51;4.72;;;1.52;;
49592;SDS011;35499;51.482;4.264;2024-02-16T05:17:18;6.18;;;2.13;;
49592;SDS011;35499;51.482;4.264;2024-02-16T05:19:44;5.70;;;2.08;;
49592;SDS011;35499;51.482;4.264;2024-02-16T05:22:09;5.47;;;2.40;;
49592;SDS011;35499;51.482;4.264;2024-02-16T05:24:35;7.28;;;1.85;;
49592;SDS011;35499;51.482;4.264;2024-02-16T05:27:00;5.00;;;2.85;;
49592;SDS011;35499;51.482;4.264;2024-02-16T05:29:26;3.30;;;1.63;;
49592;SDS011;35499;51.482;4.264;2024-02-16T05:31:52;4.20;;;1.77;;
49592;SDS011;35499;51.482;4.264;2024-02-16T05:34:17;4.65;;;2.05;;
49592;SDS011;35499;51.482;4.264;2024-02-16T05:36:43;3.17;;;1.98;;
49592;SDS011;35499;51.482;4.264;2024-02-16T05:39:10;5.10;;;1.75;;
49592;SDS011;35499;51.482;4.264;2024-02-16T05:41:46;4.75;;;2.15;;
49592;SDS011;35499;51.482;4.264;2024-02-16T05:44:11;4.38;;;1.98;;
49592;SDS011;35499;51.482;4.264;2024-02-16T05:46:37;4.60;;;2.42;;
49592;SDS011;35499;51.482;4.264;2024-02-16T05:49:03;6.07;;;1.60;;
49592;SDS011;35499;51.482;4.264;2024-02-16T05:54:00;3.75;;;1.73;;
49592;SDS011;35499;51.482;4.264;2024-02-16T05:56:25;17.87;;;6.50;;
49592;SDS011;35499;51.482;4.264;2024-02-16T05:58:53;4.18;;;2.00;;
49592;SDS011;35499;51.482;4.264;2024-02-16T06:01:18;5.13;;;2.50;;
49592;SDS011;35499;51.482;4.264;2024-02-16T06:03:43;5.90;;;1.77;;
49592;SDS011;35499;51.482;4.264;2024-02-16T06:06:09;4.47;;;2.20;;
49592;SDS011;35499;51.482;4.264;2024-02-16T06:08:34;6.28;;;1.88;;
49592;SDS011;35499;51.482;4.264;2024-02-16T06:11:00;5.77;;;2.00;;
49592;SDS011;35499;51.482;4.264;2024-02-16T06:13:27;8.73;;;2.67;;
49592;SDS011;35499;51.482;4.264;2024-02-16T06:15:52;7.13;;;2.78;;
49592;SDS011;35499;51.482;4.264;2024-02-16T06:18:18;3.93;;;1.50;;
49592;SDS011;35499;51.482;4.264;2024-02-16T06:20:44;5.15;;;2.22;;
49592;SDS011;35499;51.482;4.264;2024-02-16T06:23:10;4.88;;;1.83;;
49592;SDS011;35499;51.482;4.264;2024-02-16T06:25:35;4.28;;;1.75;;
49592;SDS011;35499;51.482;4.264;2024-02-16T06:28:01;4.72;;;1.77;;
49592;SDS011;35499;51.482;4.264;2024-02-16T06:30:26;4.20;;;1.97;;
49592;SDS011;35499;51.482;4.264;2024-02-16T06:32:51;5.40;;;1.92;;
49592;SDS011;35499;51.482;4.264;2024-02-16T06:35:19;3.75;;;2.08;;
49592;SDS011;35499;51.482;4.264;2024-02-16T06:37:45;6.13;;;2.25;;
49592;SDS011;35499;51.482;4.264;2024-02-16T06:40:11;3.80;;;2.13;;
49592;SDS011;35499;51.482;4.264;2024-02-16T06:42:36;5.22;;;1.77;;
49592;SDS011;35499;51.482;4.264;2024-02-16T06:45:03;4.93;;;2.00;;
49592;SDS011;35499;51.482;4.264;2024-02-16T06:49:55;3.63;;;1.73;;
49592;SDS011;35499;51.482;4.264;2024-02-16T06:52:20;5.90;;;2.07;;
49592;SDS011;35499;51.482;4.264;2024-02-16T06:54:45;5.03;;;2.23;;
49592;SDS011;35499;51.482;4.264;2024-02-16T06:57:11;6.50;;;2.30;;
49592;SDS011;35499;51.482;4.264;2024-02-16T06:59:36;3.87;;;2.20;;
49592;SDS011;35499;51.482;4.264;2024-02-16T07:02:01;5.47;;;2.33;;
49592;SDS011;35499;51.482;4.264;2024-02-16T07:04:27;2.47;;;1.48;;
49592;SDS011;35499;51.482;4.264;2024-02-16T07:06:53;16.25;;;3.17;;
49592;SDS011;35499;51.482;4.264;2024-02-16T07:09:18;4.33;;;1.73;;
49592;SDS011;35499;51.482;4.264;2024-02-16T07:11:44;4.97;;;2.07;;
49592;SDS011;35499;51.482;4.264;2024-02-16T07:14:11;7.75;;;2.20;;
49592;SDS011;35499;51.482;4.264;2024-02-16T07:16:37;4.20;;;2.13;;
49592;SDS011;35499;51.482;4.264;2024-02-16T07:19:03;4.80;;;1.98;;
49592;SDS011;35499;51.482;4.264;2024-02-16T07:23:55;4.80;;;1.73;;
49592;SDS011;35499;51.482;4.264;2024-02-16T07:26:20;4.60;;;1.73;;
49592;SDS011;35499;51.482;4.264;2024-02-16T07:28:46;5.60;;;2.37;;
49592;SDS011;35499;51.482;4.264;2024-02-16T07:31:11;7.33;;;2.47;;
49592;SDS011;35499;51.482;4.264;2024-02-16T07:33:36;4.57;;;2.03;;
49592;SDS011;35499;51.482;4.264;2024-02-16T07:36:02;6.68;;;2.60;;
49592;SDS011;35499;51.482;4.264;2024-02-16T07:38:28;6.47;;;2.35;;
49592;SDS011;35499;51.482;4.264;2024-02-16T07:40:53;5.90;;;2.17;;
49592;SDS011;35499;51.482;4.264;2024-02-16T07:43:19;11.80;;;2.65;;
49592;SDS011;35499;51.482;4.264;2024-02-16T07:45:44;4.53;;;2.15;;
49592;SDS011;35499;51.482;4.264;2024-02-16T07:48:10;4.28;;;2.15;;
49592;SDS011;35499;51.482;4.264;2024-02-16T07:50:35;6.20;;;3.13;;
49592;SDS011;35499;51.482;4.264;2024-02-16T07:53:00;5.93;;;2.30;;
49592;SDS011;35499;51.482;4.264;2024-02-16T07:55:26;4.90;;;2.60;;
49592;SDS011;35499;51.482;4.264;2024-02-16T07:57:51;7.27;;;2.30;;
49592;SDS011;35499;51.482;4.264;2024-02-16T08:00:17;4.55;;;2.15;;
49592;SDS011;35499;51.482;4.264;2024-02-16T08:02:43;5.55;;;2.75;;
49592;SDS011;35499;51.482;4.264;2024-02-16T08:05:08;7.50;;;2.50;;
49592;SDS011;35499;51.482;4.264;2024-02-16T08:07:37;5.55;;;3.08;;
49592;SDS011;35499;51.482;4.264;2024-02-16T08:10:07;7.43;;;2.63;;
49592;SDS011;35499;51.482;4.264;2024-02-16T08:12:33;6.97;;;2.95;;
49592;SDS011;35499;51.482;4.264;2024-02-16T08:15:00;6.95;;;3.03;;
49592;SDS011;35499;51.482;4.264;2024-02-16T08:17:26;6.05;;;2.67;;
49592;SDS011;35499;51.482;4.264;2024-02-16T08:19:52;7.87;;;3.30;;
49592;SDS011;35499;51.482;4.264;2024-02-16T08:22:18;8.20;;;2.72;;
49592;SDS011;35499;51.482;4.264;2024-02-16T08:24:44;5.75;;;2.63;;
49592;SDS011;35499;51.482;4.264;2024-02-16T08:27:11;4.35;;;1.88;;
49592;SDS011;35499;51.482;4.264;2024-02-16T08:29:37;6.82;;;2.83;;
49592;SDS011;35499;51.482;4.264;2024-02-16T08:32:03;6.43;;;2.80;;
49592;SDS011;35499;51.482;4.264;2024-02-16T08:34:30;5.53;;;2.97;;
49592;SDS011;35499;51.482;4.264;2024-02-16T08:36:55;6.32;;;2.45;;
49592;SDS011;35499;51.482;4.264;2024-02-16T08:39:21;7.27;;;2.03;;
49592;SDS011;35499;51.482;4.264;2024-02-16T08:41:49;4.88;;;2.60;;
49592;SDS011;35499;51.482;4.264;2024-02-16T08:44:15;7.32;;;2.80;;
49592;SDS011;35499;51.482;4.264;2024-02-16T08:46:40;7.60;;;2.90;;
49592;SDS011;35499;51.482;4.264;2024-02-16T08:49:06;8.20;;;2.42;;
49592;SDS011;35499;51.482;4.264;2024-02-16T08:51:32;6.10;;;3.40;;
49592;SDS011;35499;51.482;4.264;2024-02-16T08:53:58;5.75;;;2.97;;
49592;SDS011;35499;51.482;4.264;2024-02-16T08:56:24;5.95;;;2.95;;
49592;SDS011;35499;51.482;4.264;2024-02-16T08:58:49;7.07;;;2.40;;
49592;SDS011;35499;51.482;4.264;2024-02-16T09:01:14;7.88;;;2.60;;
49592;SDS011;35499;51.482;4.264;2024-02-16T09:06:06;12.90;;;3.10;;
49592;SDS011;35499;51.482;4.264;2024-02-16T09:08:32;5.77;;;2.33;;
49592;SDS011;35499;51.482;4.264;2024-02-16T09:11:00;9.70;;;2.15;;
49592;SDS011;35499;51.482;4.264;2024-02-16T09:13:25;4.85;;;1.83;;
49592;SDS011;35499;51.482;4.264;2024-02-16T09:15:51;6.83;;;2.33;;
49592;SDS011;35499;51.482;4.264;2024-02-16T09:18:18;6.57;;;2.50;;
49592;SDS011;35499;51.482;4.264;2024-02-16T09:20:44;6.87;;;2.60;;
49592;SDS011;35499;51.482;4.264;2024-02-16T09:23:09;7.65;;;2.88;;
49592;SDS011;35499;51.482;4.264;2024-02-16T09:25:35;6.18;;;2.78;;
49592;SDS011;35499;51.482;4.264;2024-02-16T09:28:00;7.00;;;3.03;;
49592;SDS011;35499;51.482;4.264;2024-02-16T09:30:25;5.50;;;3.20;;
49592;SDS011;35499;51.482;4.264;2024-02-16T09:32:51;7.57;;;3.00;;
49592;SDS011;35499;51.482;4.264;2024-02-16T09:35:16;8.05;;;3.45;;
49592;SDS011;35499;51.482;4.264;2024-02-16T09:37:42;7.87;;;3.60;;
49592;SDS011;35499;51.482;4.264;2024-02-16T09:40:07;8.40;;;3.57;;
49592;SDS011;35499;51.482;4.264;2024-02-16T09:42:36;7.88;;;3.85;;
49592;SDS011;35499;51.482;4.264;2024-02-16T09:45:03;7.57;;;3.60;;
49592;SDS011;35499;51.482;4.264;2024-02-16T09:47:30;8.95;;;3.90;;
49592;SDS011;35499;51.482;4.264;2024-02-16T09:49:58;11.02;;;3.92;;
49592;SDS011;35499;51.482;4.264;2024-02-16T09:52:23;8.77;;;4.20;;
49592;SDS011;35499;51.482;4.264;2024-02-16T09:54:49;13.75;;;4.18;;
49592;SDS011;35499;51.482;4.264;2024-02-16T09:57:17;12.10;;;4.30;;
49592;SDS011;35499;51.482;4.264;2024-02-16T09:59:43;9.10;;;4.10;;
49592;SDS011;35499;51.482;4.264;2024-02-16T10:04:36;10.18;;;3.67;;
49592;SDS011;35499;51.482;4.264;2024-02-16T10:07:01;9.50;;;4.40;;
49592;SDS011;35499;51.482;4.264;2024-02-16T10:09:27;11.63;;;4.00;;
49592;SDS011;35499;51.482;4.264;2024-02-16T10:11:59;10.85;;;3.97;;
49592;SDS011;35499;51.482;4.264;2024-02-16T10:14:25;6.85;;;3.20;;
49592;SDS011;35499;51.482;4.264;2024-02-16T10:17:03;7.45;;;3.92;;
49592;SDS011;35499;51.482;4.264;2024-02-16T10:19:31;9.15;;;4.55;;
49592;SDS011;35499;51.482;4.264;2024-02-16T10:22:07;11.27;;;4.97;;
49592;SDS011;35499;51.482;4.264;2024-02-16T10:24:34;9.13;;;4.55;;
49592;SDS011;35499;51.482;4.264;2024-02-16T10:26:59;10.75;;;4.80;;
49592;SDS011;35499;51.482;4.264;2024-02-16T10:29:24;11.07;;;4.22;;
49592;SDS011;35499;51.482;4.264;2024-02-16T10:31:52;14.63;;;5.50;;
49592;SDS011;35499;51.482;4.264;2024-02-16T10:34:17;12.33;;;5.10;;
49592;SDS011;35499;51.482;4.264;2024-02-16T10:39:09;11.77;;;4.30;;
49592;SDS011;35499;51.482;4.264;2024-02-16T10:41:42;13.10;;;5.15;;
49592;SDS011;35499;51.482;4.264;2024-02-16T10:44:09;9.48;;;4.90;;
49592;SDS011;35499;51.482;4.264;2024-02-16T10:46:35;12.93;;;5.85;;
49592;SDS011;35499;51.482;4.264;2024-02-16T10:49:01;9.63;;;4.75;;
49592;SDS011;35499;51.482;4.264;2024-02-16T10:51:34;10.48;;;5.05;;
49592;SDS011;35499;51.482;4.264;2024-02-16T10:54:08;10.82;;;5.53;;
49592;SDS011;35499;51.482;4.264;2024-02-16T10:56:35;11.48;;;5.10;;
49592;SDS011;35499;51.482;4.264;2024-02-16T10:59:11;9.48;;;4.97;;
49592;SDS011;35499;51.482;4.264;2024-02-16T11:01:37;10.88;;;5.55;;
49592;SDS011;35499;51.482;4.264;2024-02-16T11:04:04;9.90;;;5.47;;
49592;SDS011;35499;51.482;4.264;2024-02-16T11:06:43;8.75;;;4.93;;
49592;SDS011;35499;51.482;4.264;2024-02-16T11:09:09;11.75;;;5.50;;
49592;SDS011;35499;51.482;4.264;2024-02-16T11:11:36;10.90;;;5.80;;
49592;SDS011;35499;51.482;4.264;2024-02-16T11:14:02;13.27;;;6.85;;
49592;SDS011;35499;51.482;4.264;2024-02-16T11:16:28;12.18;;;6.90;;
49592;SDS011;35499;51.482;4.264;2024-02-16T11:18:54;12.93;;;7.32;;
49592;SDS011;35499;51.482;4.264;2024-02-16T11:21:21;16.00;;;8.15;;
49592;SDS011;35499;51.482;4.264;2024-02-16T11:23:46;16.73;;;8.73;;
49592;SDS011;35499;51.482;4.264;2024-02-16T11:26:13;15.90;;;7.15;;
49592;SDS011;35499;51.482;4.264;2024-02-16T11:28:39;18.30;;;8.05;;
49592;SDS011;35499;51.482;4.264;2024-02-16T11:31:06;18.90;;;7.55;;
49592;SDS011;35499;51.482;4.264;2024-02-16T11:33:35;19.15;;;7.55;;
49592;SDS011;35499;51.482;4.264;2024-02-16T11:36:01;16.10;;;7.72;;
49592;SDS011;35499;51.482;4.264;2024-02-16T11:38:34;19.77;;;8.10;;
49592;SDS011;35499;51.482;4.264;2024-02-16T11:41:04;15.27;;;8.10;;
49592;SDS011;35499;51.482;4.264;2024-02-16T11:43:35;19.73;;;7.65;;
49592;SDS011;35499;51.482;4.264;2024-02-16T11:46:14;19.83;;;7.72;;
49592;SDS011;35499;51.482;4.264;2024-02-16T11:48:41;16.10;;;7.22;;
49592;SDS011;35499;51.482;4.264;2024-02-16T11:51:07;16.98;;;7.20;;
49592;SDS011;35499;51.482;4.264;2024-02-16T11:53:32;16.77;;;7.18;;
49592;SDS011;35499;51.482;4.264;2024-02-16T11:55:58;11.27;;;5.70;;
49592;SDS011;35499;51.482;4.264;2024-02-16T11:58:24;13.40;;;5.88;;
49592;SDS011;35499;51.482;4.264;2024-02-16T12:00:51;10.95;;;4.95;;
49592;SDS011;35499;51.482;4.264;2024-02-16T12:05:56;13.05;;;5.35;;
49592;SDS011;35499;51.482;4.264;2024-02-16T12:08:23;11.45;;;5.28;;
49592;SDS011;35499;51.482;4.264;2024-02-16T12:10:49;11.52;;;5.53;;
49592;SDS011;35499;51.482;4.264;2024-02-16T12:13:16;12.32;;;5.30;;
49592;SDS011;35499;51.482;4.264;2024-02-16T12:15:43;13.43;;;4.57;;
49592;SDS011;35499;51.482;4.264;2024-02-16T12:18:10;8.93;;;4.55;;
49592;SDS011;35499;51.482;4.264;2024-02-16T12:20:35;9.30;;;4.57;;
49592;SDS011;35499;51.482;4.264;2024-02-16T12:23:10;11.47;;;5.17;;
49592;SDS011;35499;51.482;4.264;2024-02-16T12:25:35;9.02;;;4.15;;
49592;SDS011;35499;51.482;4.264;2024-02-16T12:28:01;12.03;;;4.80;;
49592;SDS011;35499;51.482;4.264;2024-02-16T12:30:26;8.43;;;4.77;;
49592;SDS011;35499;51.482;4.264;2024-02-16T12:32:51;10.38;;;4.68;;
49592;SDS011;35499;51.482;4.264;2024-02-16T12:35:17;10.38;;;4.35;;
49592;SDS011;35499;51.482;4.264;2024-02-16T12:37:43;9.43;;;4.10;;
49592;SDS011;35499;51.482;4.264;2024-02-16T12:40:08;10.88;;;4.90;;
49592;SDS011;35499;51.482;4.264;2024-02-16T12:42:34;9.82;;;4.53;;
49592;SDS011;35499;51.482;4.264;2024-02-16T12:44:59;11.47;;;4.07;;
49592;SDS011;35499;51.482;4.264;2024-02-16T12:47:24;10.23;;;4.60;;
49592;SDS011;35499;51.482;4.264;2024-02-16T12:49:50;10.20;;;3.87;;
49592;SDS011;35499;51.482;4.264;2024-02-16T12:52:20;8.02;;;3.95;;
49592;SDS011;35499;51.482;4.264;2024-02-16T12:54:47;7.95;;;4.07;;
49592;SDS011;35499;51.482;4.264;2024-02-16T12:57:13;9.70;;;4.15;;
49592;SDS011;35499;51.482;4.264;2024-02-16T12:59:38;9.30;;;4.15;;
49592;SDS011;35499;51.482;4.264;2024-02-16T13:02:03;7.40;;;3.53;;
49592;SDS011;35499;51.482;4.264;2024-02-16T13:04:29;8.30;;;3.90;;
49592;SDS011;35499;51.482;4.264;2024-02-16T13:06:56;8.55;;;4.65;;
49592;SDS011;35499;51.482;4.264;2024-02-16T13:09:21;7.57;;;3.23;;
49592;SDS011;35499;51.482;4.264;2024-02-16T13:11:47;7.85;;;3.97;;
49592;SDS011;35499;51.482;4.264;2024-02-16T13:14:19;7.32;;;3.78;;
49592;SDS011;35499;51.482;4.264;2024-02-16T13:16:44;10.07;;;4.20;;
49592;SDS011;35499;51.482;4.264;2024-02-16T13:19:09;10.53;;;3.20;;
49592;SDS011;35499;51.482;4.264;2024-02-16T13:21:35;7.35;;;3.47;;
49592;SDS011;35499;51.482;4.264;2024-02-16T13:24:00;6.43;;;2.97;;
49592;SDS011;35499;51.482;4.264;2024-02-16T13:26:25;4.73;;;2.50;;
49592;SDS011;35499;51.482;4.264;2024-02-16T13:28:51;7.30;;;3.47;;
49592;SDS011;35499;51.482;4.264;2024-02-16T13:31:19;7.70;;;3.28;;
49592;SDS011;35499;51.482;4.264;2024-02-16T13:33:44;5.50;;;2.78;;
49592;SDS011;35499;51.482;4.264;2024-02-16T13:36:09;5.27;;;2.77;;
49592;SDS011;35499;51.482;4.264;2024-02-16T13:38:35;8.23;;;3.00;;
49592;SDS011;35499;51.482;4.264;2024-02-16T13:41:00;5.60;;;3.03;;
49592;SDS011;35499;51.482;4.264;2024-02-16T13:43:25;4.13;;;1.97;;
49592;SDS011;35499;51.482;4.264;2024-02-16T13:45:51;4.72;;;2.25;;
49592;SDS011;35499;51.482;4.264;2024-02-16T13:48:18;5.60;;;2.42;;
49592;SDS011;35499;51.482;4.264;2024-02-16T13:50:47;6.90;;;2.25;;
49592;SDS011;35499;51.482;4.264;2024-02-16T13:53:13;6.85;;;2.88;;
49592;SDS011;35499;51.482;4.264;2024-02-16T13:55:39;3.90;;;2.35;;
49592;SDS011;35499;51.482;4.264;2024-02-16T14:00:31;5.60;;;2.40;;
49592;SDS011;35499;51.482;4.264;2024-02-16T14:02:56;4.17;;;2.03;;
49592;SDS011;35499;51.482;4.264;2024-02-16T14:05:22;5.35;;;2.13;;
49592;SDS011;35499;51.482;4.264;2024-02-16T14:07:50;3.95;;;1.88;;
49592;SDS011;35499;51.482;4.264;2024-02-16T14:10:15;3.97;;;2.10;;
49592;SDS011;35499;51.482;4.264;2024-02-16T14:12:40;5.07;;;2.57;;
49592;SDS011;35499;51.482;4.264;2024-02-16T14:15:06;5.37;;;2.00;;
49592;SDS011;35499;51.482;4.264;2024-02-16T14:17:32;7.90;;;2.33;;
49592;SDS011;35499;51.482;4.264;2024-02-16T14:19:57;5.70;;;2.92;;
49592;SDS011;35499;51.482;4.264;2024-02-16T14:22:23;6.82;;;2.55;;
49592;SDS011;35499;51.482;4.264;2024-02-16T14:24:48;9.05;;;2.95;;
49592;SDS011;35499;51.482;4.264;2024-02-16T14:27:14;6.50;;;2.47;;
49592;SDS011;35499;51.482;4.264;2024-02-16T14:29:39;6.27;;;2.50;;
49592;SDS011;35499;51.482;4.264;2024-02-16T14:32:05;5.88;;;2.10;;
49592;SDS011;35499;51.482;4.264;2024-02-16T14:34:31;4.47;;;2.00;;
49592;SDS011;35499;51.482;4.264;2024-02-16T14:36:56;8.03;;;1.80;;
49592;SDS011;35499;51.482;4.264;2024-02-16T14:39:21;4.77;;;1.73;;
49592;SDS011;35499;51.482;4.264;2024-02-16T14:41:50;6.70;;;2.28;;
49592;SDS011;35499;51.482;4.264;2024-02-16T14:44:16;4.68;;;1.83;;
49592;SDS011;35499;51.482;4.264;2024-02-16T14:46:41;5.97;;;2.00;;
49592;SDS011;35499;51.482;4.264;2024-02-16T14:49:06;5.10;;;2.63;;
49592;SDS011;35499;51.482;4.264;2024-02-16T14:51:33;9.52;;;2.78;;
49592;SDS011;35499;51.482;4.264;2024-02-16T14:53:59;6.90;;;1.63;;
49592;SDS011;35499;51.482;4.264;2024-02-16T14:56:24;4.03;;;1.97;;
49592;SDS011;35499;51.482;4.264;2024-02-16T14:58:49;6.90;;;1.70;;
49592;SDS011;35499;51.482;4.264;2024-02-16T15:01:14;3.97;;;1.60;;
49592;SDS011;35499;51.482;4.264;2024-02-16T15:03:40;5.88;;;1.90;;